createdAt,value
2019-01-28T00:00:39.212Z,95182.31
2019-01-28T00:02:40.859Z,95181.83
2019-01-28T00:04:42.454Z,95183.32
2019-01-28T00:06:44.049Z,95182.25
2019-01-28T00:08:45.654Z,95182.20
2019-01-28T00:10:47.292Z,95177.75
2019-01-28T00:12:48.944Z,95187.44
2019-01-28T00:14:50.545Z,95179.48
2019-01-28T00:16:52.141Z,95182.04
2019-01-28T00:18:53.749Z,95177.39
2019-01-28T00:20:55.345Z,95177.80
2019-01-28T00:22:56.954Z,95141.38
2019-01-28T00:24:58.593Z,95182.25
2019-01-28T00:27:00.192Z,95183.61
2019-01-28T00:29:01.785Z,95166.19
2019-01-28T00:31:03.386Z,95184.50
2019-01-28T00:33:04.993Z,95179.59
2019-01-28T00:35:06.604Z,95177.84
2019-01-28T00:37:08.228Z,95174.84
2019-01-28T00:39:09.840Z,95174.50
2019-01-28T00:41:11.438Z,95176.31
2019-01-28T00:43:13.091Z,95175.98
2019-01-28T00:45:14.685Z,95178.20
2019-01-28T00:47:16.291Z,95174.70
2019-01-28T00:49:17.935Z,95176.59
2019-01-28T00:51:19.548Z,95172.76
2019-01-28T00:53:21.152Z,95182.10
2019-01-28T00:55:22.800Z,95174.48
2019-01-28T00:57:24.401Z,95174.94
2019-01-28T00:59:26.019Z,95176.59
2019-01-28T01:01:27.618Z,95185.56
2019-01-28T01:03:29.225Z,95190.67
2019-01-28T01:05:30.827Z,95189.34
2019-01-28T01:07:32.476Z,95188.94
2019-01-28T01:09:34.073Z,95186.09
2019-01-28T01:11:35.686Z,95178.08
2019-01-28T01:13:37.300Z,95188.98
2019-01-28T01:15:38.900Z,95185.31
2019-01-28T01:17:40.493Z,95184.73
2019-01-28T01:19:42.160Z,95184.52
2019-01-28T01:21:43.758Z,95180.07
2019-01-28T01:23:45.364Z,95171.40
2019-01-28T01:25:46.957Z,95188.95
2019-01-28T01:27:48.583Z,95187.48
2019-01-28T01:29:50.224Z,95191.72
2019-01-28T01:31:51.827Z,95179.09
2019-01-28T01:33:53.421Z,95194.16
2019-01-28T01:35:55.027Z,95184.06
2019-01-28T01:37:56.675Z,95186.70
2019-01-28T01:39:58.270Z,95188.09
2019-01-28T01:41:59.862Z,95188.95
2019-01-28T01:44:01.474Z,95196.20
2019-01-28T01:46:03.059Z,95194.88
2019-01-28T01:48:04.705Z,95187.82
2019-01-28T01:50:06.337Z,95193.53
2019-01-28T01:52:07.929Z,95189.86
2019-01-28T01:54:09.540Z,95190.32
2019-01-28T01:56:11.138Z,95192.42
2019-01-28T01:58:13.047Z,95193.19
2019-01-28T02:00:14.377Z,95190.55
2019-01-28T02:02:15.998Z,95196.20
2019-01-28T02:04:17.607Z,95197.67
2019-01-28T02:06:19.206Z,95199.64
2019-01-28T02:08:20.801Z,95194.45
2019-01-28T02:10:22.416Z,95199.79
2019-01-28T02:12:24.045Z,95195.19
2019-01-28T02:14:25.697Z,95199.91
2019-01-28T02:16:27.290Z,95204.16
2019-01-28T02:18:28.889Z,95210.69
2019-01-28T02:20:30.476Z,95207.43
2019-01-28T02:22:32.074Z,95207.31
2019-01-28T02:24:33.673Z,95209.83
2019-01-28T02:26:35.259Z,95206.70
2019-01-28T02:28:36.853Z,95209.83
2019-01-28T02:30:38.489Z,95209.73
2019-01-28T02:32:40.089Z,95207.78
2019-01-28T02:34:41.702Z,95206.87
2019-01-28T02:36:43.312Z,95207.22
2019-01-28T02:38:44.915Z,95208.00
2019-01-28T02:40:46.525Z,95206.05
2019-01-28T02:42:48.181Z,95210.22
2019-01-28T02:44:49.794Z,95210.96
2019-01-28T02:46:51.389Z,95214.77
2019-01-28T02:48:53.054Z,95212.88
2019-01-28T02:50:54.745Z,95209.39
2019-01-28T02:52:57.033Z,95211.20
2019-01-28T02:54:58.718Z,95211.55
2019-01-28T02:57:00.401Z,95216.72
2019-01-28T02:59:02.118Z,95215.45
2019-01-28T03:01:04.296Z,95217.02
2019-01-28T03:03:06.875Z,95224.08
2019-01-28T03:05:08.627Z,95220.58
2019-01-28T03:07:10.345Z,95225.15
2019-01-28T03:09:12.032Z,95229.25
2019-01-28T03:11:14.614Z,95226.50
2019-01-28T03:13:16.303Z,95233.66
2019-01-28T03:15:17.994Z,95230.66
2019-01-28T03:17:19.656Z,95228.44
2019-01-28T03:19:21.281Z,95231.44
2019-01-28T03:21:22.913Z,95236.51
2019-01-28T03:23:24.519Z,95249.42
2019-01-28T03:25:26.192Z,95254.09
2019-01-28T03:27:27.846Z,95256.88
2019-01-28T03:29:29.589Z,95262.35
2019-01-28T03:31:31.219Z,95266.22
2019-01-28T03:33:32.826Z,95262.92
2019-01-28T03:35:34.550Z,95265.72
2019-01-28T03:37:36.257Z,95269.74
2019-01-28T03:39:37.889Z,95272.72
2019-01-28T03:41:39.548Z,95272.66
2019-01-28T03:43:41.166Z,95275.78
2019-01-28T03:45:42.776Z,95269.84
2019-01-28T03:47:44.406Z,95268.05
2019-01-28T03:49:46.172Z,95272.59
2019-01-28T03:51:47.816Z,95270.63
2019-01-28T03:53:49.607Z,95286.94
2019-01-28T03:55:51.225Z,95285.97
2019-01-28T03:57:52.848Z,95292.45
2019-01-28T03:59:54.487Z,95291.72
2019-01-28T04:01:56.121Z,95293.70
2019-01-28T04:03:57.721Z,95293.41
2019-01-28T04:05:59.311Z,95293.77
2019-01-28T04:08:01.166Z,95295.99
2019-01-28T04:10:02.826Z,95303.56
2019-01-28T04:12:04.421Z,95306.53
2019-01-28T04:14:06.067Z,95309.01
2019-01-28T04:16:07.671Z,95312.34
2019-01-28T04:18:09.285Z,95318.56
2019-01-28T04:20:10.926Z,95324.34
2019-01-28T04:22:12.512Z,95328.24
2019-01-28T04:24:14.110Z,95333.45
2019-01-28T04:26:15.734Z,95333.08
2019-01-28T04:28:17.343Z,95333.14
2019-01-28T04:30:18.981Z,95338.28
2019-01-28T04:32:20.583Z,95338.47
2019-01-28T04:34:22.228Z,95333.55
2019-01-28T04:36:23.841Z,95335.42
2019-01-28T04:38:25.442Z,95334.47
2019-01-28T04:40:27.042Z,95340.48
2019-01-28T04:42:28.681Z,95336.20
2019-01-28T04:44:30.278Z,95342.32
2019-01-28T04:46:31.881Z,95347.98
2019-01-28T04:48:33.518Z,95355.88
2019-01-28T04:50:35.113Z,95353.66
2019-01-28T04:52:36.710Z,95355.02
2019-01-28T04:54:38.336Z,95357.05
2019-01-28T04:56:39.930Z,95360.02
2019-01-28T04:58:41.525Z,95359.22
2019-01-28T05:00:43.157Z,95360.83
2019-01-28T05:02:44.753Z,95357.86
2019-01-28T05:04:46.365Z,95355.12
2019-01-28T05:06:48.023Z,95357.41
2019-01-28T05:08:49.646Z,95361.79
2019-01-28T05:10:51.252Z,95371.65
2019-01-28T05:12:52.854Z,95367.97
2019-01-28T05:14:54.466Z,95368.42
2019-01-28T05:16:56.083Z,95376.63
2019-01-28T05:18:57.722Z,95369.70
2019-01-28T05:20:59.317Z,95373.66
2019-01-28T05:23:01.084Z,95369.91
2019-01-28T05:25:02.713Z,95373.22
2019-01-28T05:27:04.323Z,95371.94
2019-01-28T05:29:05.919Z,95374.67
2019-01-28T05:31:07.513Z,95370.77
2019-01-28T05:33:09.109Z,95367.78
2019-01-28T05:35:10.706Z,95372.63
2019-01-28T05:37:12.346Z,95365.77
2019-01-28T05:39:13.938Z,95363.03
2019-01-28T05:41:15.530Z,95366.04
2019-01-28T05:43:17.125Z,95372.91
2019-01-28T05:45:18.737Z,95369.42
2019-01-28T05:47:20.359Z,95372.92
2019-01-28T05:49:21.957Z,95369.17
2019-01-28T05:51:23.591Z,95370.89
2019-01-28T05:53:25.186Z,95368.48
2019-01-28T05:55:26.767Z,95368.60
2019-01-28T05:57:28.390Z,95371.23
2019-01-28T05:59:30.001Z,95371.56
2019-01-28T06:01:31.611Z,95371.97
2019-01-28T06:03:33.205Z,95367.28
2019-01-28T06:05:34.816Z,95362.55
2019-01-28T06:07:36.416Z,95358.65
2019-01-28T06:09:38.053Z,95361.69
2019-01-28T06:11:39.663Z,95357.27
2019-01-28T06:13:41.265Z,95342.49
2019-01-28T06:15:42.852Z,95363.16
2019-01-28T06:17:44.455Z,95362.52
2019-01-28T06:19:46.062Z,95372.50
2019-01-28T06:21:47.713Z,95374.49
2019-01-28T06:23:49.319Z,95377.16
2019-01-28T06:25:50.924Z,95385.86
2019-01-28T06:27:52.517Z,95383.19
2019-01-28T06:29:54.100Z,95386.41
2019-01-28T06:31:55.708Z,95385.66
2019-01-28T06:33:57.348Z,95387.16
2019-01-28T06:35:58.945Z,95383.03
2019-01-28T06:38:00.552Z,95387.45
2019-01-28T06:40:02.192Z,95386.36
2019-01-28T06:42:03.804Z,95390.33
2019-01-28T06:44:05.408Z,95391.79
2019-01-28T06:46:07.015Z,95393.62
2019-01-28T06:48:08.665Z,95388.22
2019-01-28T06:50:10.267Z,95391.70
2019-01-28T06:52:11.880Z,95390.47
2019-01-28T06:54:13.522Z,95399.35
2019-01-28T06:56:15.131Z,95394.44
2019-01-28T06:58:16.739Z,95398.16
2019-01-28T07:00:18.389Z,95399.43
2019-01-28T07:02:20.008Z,95402.80
2019-01-28T07:04:21.601Z,95395.53
2019-01-28T07:06:23.240Z,95394.48
2019-01-28T07:08:24.840Z,95403.67
2019-01-28T07:10:26.519Z,95401.33
2019-01-28T07:12:28.166Z,95397.99
2019-01-28T07:14:29.762Z,95407.72
2019-01-28T07:16:31.358Z,95415.45
2019-01-28T07:18:32.953Z,95409.08
2019-01-28T07:20:34.594Z,95408.70
2019-01-28T07:22:36.189Z,95419.89
2019-01-28T07:24:37.785Z,95420.98
2019-01-28T07:26:39.406Z,95420.83
2019-01-28T07:28:41.015Z,95430.02
2019-01-28T07:30:42.623Z,95438.44
2019-01-28T07:32:44.263Z,95438.55
2019-01-28T07:34:45.859Z,95442.27
2019-01-28T07:36:47.461Z,95443.50
2019-01-28T07:38:49.078Z,95444.06
2019-01-28T07:40:50.694Z,95444.55
2019-01-28T07:42:52.304Z,95455.35
2019-01-28T07:44:53.957Z,95452.13
2019-01-28T07:46:55.586Z,95456.16
2019-01-28T07:48:57.231Z,95459.77
2019-01-28T07:50:58.820Z,95460.70
2019-01-28T07:53:00.418Z,95459.68
2019-01-28T07:55:02.076Z,95462.79
2019-01-28T07:57:04.296Z,95457.53
2019-01-28T07:59:05.959Z,95462.75
2019-01-28T08:01:07.558Z,95467.58
2019-01-28T08:03:09.167Z,95461.38
2019-01-28T08:05:10.752Z,95458.15
2019-01-28T08:07:12.375Z,95463.77
2019-01-28T08:09:13.979Z,95455.17
2019-01-28T08:11:15.590Z,95459.00
2019-01-28T08:13:17.185Z,95461.66
2019-01-28T08:15:18.782Z,95464.39
2019-01-28T08:17:20.393Z,95437.05
2019-01-28T08:19:22.032Z,95457.30
2019-01-28T08:21:23.627Z,95452.27
2019-01-28T08:23:25.240Z,95460.81
2019-01-28T08:25:26.851Z,95462.23
2019-01-28T08:27:28.450Z,95457.02
2019-01-28T08:29:30.083Z,95464.19
2019-01-28T08:31:31.685Z,95460.77
2019-01-28T08:33:33.335Z,95463.63
2019-01-28T08:35:34.937Z,95460.11
2019-01-28T08:37:36.540Z,95459.86
2019-01-28T08:39:38.165Z,95458.48
2019-01-28T08:41:39.786Z,95467.48
2019-01-28T08:43:41.385Z,95470.20
2019-01-28T08:45:42.978Z,95472.80
2019-01-28T08:47:44.607Z,95472.47
2019-01-28T08:49:46.216Z,95478.11
2019-01-28T08:51:47.818Z,95476.05
2019-01-28T08:53:49.413Z,95477.63
2019-01-28T08:55:51.024Z,95481.24
2019-01-28T08:57:52.645Z,95483.23
2019-01-28T08:59:54.242Z,95485.30
2019-01-28T09:01:55.887Z,95486.13
2019-01-28T09:03:57.482Z,95486.61
2019-01-28T09:05:59.077Z,95484.66
2019-01-28T09:08:00.713Z,95486.38
2019-01-28T09:10:02.305Z,95480.56
2019-01-28T09:12:03.945Z,95490.95
2019-01-28T09:14:05.537Z,95482.62
2019-01-28T09:16:07.134Z,95486.17
2019-01-28T09:18:08.752Z,95490.59
2019-01-28T09:20:11.290Z,95487.29
2019-01-28T09:22:12.038Z,95487.89
2019-01-28T09:24:13.647Z,95486.75
2019-01-28T09:26:15.251Z,95487.69
2019-01-28T09:28:16.895Z,95490.34
2019-01-28T09:30:18.479Z,95485.05
2019-01-28T09:32:20.083Z,95490.71
2019-01-28T09:34:21.717Z,95486.24
2019-01-28T09:36:23.328Z,95491.03
2019-01-28T09:38:24.929Z,95488.17
2019-01-28T09:40:26.584Z,95481.87
2019-01-28T09:42:28.188Z,95485.29
2019-01-28T09:44:29.781Z,95488.84
2019-01-28T09:46:31.377Z,95485.53
2019-01-28T09:48:34.296Z,95486.58
2019-01-28T09:50:34.645Z,95487.17
2019-01-28T09:52:36.291Z,95481.48
2019-01-28T09:54:38.672Z,95491.52
2019-01-28T09:56:40.275Z,95488.87
2019-01-28T09:58:41.869Z,95489.09
2019-01-28T10:00:43.451Z,95487.17
2019-01-28T10:02:45.032Z,95495.27
2019-01-28T10:04:46.672Z,95489.99
2019-01-28T10:06:48.256Z,95489.53
2019-01-28T10:08:49.857Z,95488.55
2019-01-28T10:10:51.453Z,95487.56
2019-01-28T10:12:53.059Z,95493.37
2019-01-28T10:14:54.669Z,95490.96
2019-01-28T10:16:56.293Z,95490.67
2019-01-28T10:18:57.894Z,95488.58
2019-01-28T10:20:59.543Z,95483.94
2019-01-28T10:23:01.151Z,95481.51
2019-01-28T10:25:02.758Z,95486.28
2019-01-28T10:27:04.390Z,95483.54
2019-01-28T10:29:05.971Z,95485.53
2019-01-28T10:31:07.584Z,95483.25
2019-01-28T10:33:09.181Z,95486.28
2019-01-28T10:35:10.832Z,95482.38
2019-01-28T10:37:12.429Z,95486.21
2019-01-28T10:39:14.029Z,95484.11
2019-01-28T10:41:15.634Z,95485.88
2019-01-28T10:43:17.220Z,95486.36
2019-01-28T10:45:18.804Z,95488.27
2019-01-28T10:47:20.450Z,95486.28
2019-01-28T10:49:22.060Z,95485.94
2019-01-28T10:51:23.658Z,95486.39
2019-01-28T10:53:25.271Z,95489.80
2019-01-28T10:55:26.856Z,95492.39
2019-01-28T10:57:28.467Z,95487.55
2019-01-28T10:59:30.100Z,95491.90
2019-01-28T11:01:31.709Z,95499.33
2019-01-28T11:03:33.305Z,95488.66
2019-01-28T11:05:34.938Z,95485.91
2019-01-28T11:07:36.544Z,95488.64
2019-01-28T11:09:38.182Z,95484.66
2019-01-28T11:11:39.897Z,95479.73
2019-01-28T11:13:42.122Z,95483.25
2019-01-28T11:15:43.727Z,95482.50
2019-01-28T11:17:45.366Z,95479.34
2019-01-28T11:19:47.026Z,95450.94
2019-01-28T11:21:48.648Z,95481.32
2019-01-28T11:23:50.259Z,95489.38
2019-01-28T11:25:51.871Z,95484.39
2019-01-28T11:27:53.514Z,95476.84
2019-01-28T11:29:55.236Z,95484.50
2019-01-28T11:31:56.899Z,95483.22
2019-01-28T11:33:58.473Z,95477.51
2019-01-28T11:36:05.172Z,95487.94
2019-01-28T11:38:01.891Z,95490.94
2019-01-28T11:40:03.542Z,95490.45
2019-01-28T11:42:05.078Z,95482.73
2019-01-28T11:44:06.824Z,95475.84
2019-01-28T11:46:08.413Z,95475.77
2019-01-28T11:48:10.035Z,95468.35
2019-01-28T11:50:11.653Z,95466.61
2019-01-28T11:52:13.264Z,95475.27
2019-01-28T11:54:14.877Z,95476.64
2019-01-28T11:56:16.536Z,95472.19
2019-01-28T11:58:18.130Z,95481.13
2019-01-28T12:00:19.740Z,95467.66
2019-01-28T12:02:21.341Z,95473.85
2019-01-28T12:04:22.952Z,95468.71
2019-01-28T12:06:24.564Z,95473.22
2019-01-28T12:08:26.204Z,95481.33
2019-01-28T12:10:27.816Z,95478.66
2019-01-28T12:12:29.418Z,95476.22
2019-01-28T12:14:31.014Z,95473.63
2019-01-28T12:16:32.665Z,95472.02
2019-01-28T12:18:34.292Z,95474.72
2019-01-28T12:20:35.922Z,95466.65
2019-01-28T12:22:37.521Z,95466.04
2019-01-28T12:24:39.117Z,95465.84
2019-01-28T12:26:40.722Z,95463.41
2019-01-28T12:28:42.362Z,95455.15
2019-01-28T12:30:44.012Z,95453.67
2019-01-28T12:32:45.620Z,95441.11
2019-01-28T12:34:47.228Z,95455.77
2019-01-28T12:36:48.825Z,95463.64
2019-01-28T12:38:50.461Z,95450.50
2019-01-28T12:40:52.069Z,95467.91
2019-01-28T12:42:53.711Z,95473.19
2019-01-28T12:44:55.316Z,95466.09
2019-01-28T12:46:56.910Z,95473.87
2019-01-28T12:48:58.516Z,95468.89
2019-01-28T12:51:00.153Z,95452.80
2019-01-28T12:53:01.753Z,95471.31
2019-01-28T12:55:03.356Z,95471.59
2019-01-28T12:57:04.950Z,95470.22
2019-01-28T12:59:09.094Z,95469.42
2019-01-28T13:01:08.207Z,95465.98
2019-01-28T13:03:09.846Z,95457.44
2019-01-28T13:05:11.460Z,95454.99
2019-01-28T13:07:13.053Z,95458.75
2019-01-28T13:09:14.664Z,95463.44
2019-01-28T13:11:16.331Z,95467.05
2019-01-28T13:13:18.020Z,95457.11
2019-01-28T13:15:19.696Z,95455.69
2019-01-28T13:17:21.308Z,95462.19
2019-01-28T13:19:29.851Z,95444.56
2019-01-28T13:21:24.608Z,95468.26
2019-01-28T13:23:26.224Z,95475.27
2019-01-28T13:25:27.827Z,95472.47
2019-01-28T13:27:29.470Z,95471.13
2019-01-28T13:29:31.070Z,95474.66
2019-01-28T13:31:32.910Z,95474.48
2019-01-28T13:33:34.321Z,95478.61
2019-01-28T13:35:35.910Z,95481.84
2019-01-28T13:37:37.491Z,95482.21
2019-01-28T13:39:39.105Z,95487.31
2019-01-28T13:41:40.726Z,95484.84
2019-01-28T13:43:42.329Z,95481.98
2019-01-28T13:45:43.970Z,95480.41
2019-01-28T13:47:45.570Z,95482.20
2019-01-28T13:49:47.163Z,95459.22
2019-01-28T13:51:48.805Z,95479.39
2019-01-28T13:53:50.445Z,95477.02
2019-01-28T13:55:52.052Z,95482.67
2019-01-28T13:57:53.704Z,95478.13
2019-01-28T13:59:55.305Z,95484.20
2019-01-28T14:01:56.905Z,95481.87
2019-01-28T14:03:58.674Z,95476.91
2019-01-28T14:06:00.288Z,95481.03
2019-01-28T14:08:01.894Z,95476.41
2019-01-28T14:10:03.489Z,95483.48
2019-01-28T14:12:05.091Z,95485.57
2019-01-28T14:14:06.690Z,95488.51
2019-01-28T14:16:08.328Z,95478.99
2019-01-28T14:18:09.940Z,95485.34
2019-01-28T14:20:11.538Z,95480.95
2019-01-28T14:22:13.133Z,95477.58
2019-01-28T14:24:14.800Z,95493.11
2019-01-28T14:26:16.412Z,95488.87
2019-01-28T14:28:18.018Z,95486.13
2019-01-28T14:30:19.609Z,95485.61
2019-01-28T14:32:21.220Z,95484.67
2019-01-28T14:34:22.819Z,95487.67
2019-01-28T14:36:24.453Z,95488.05
2019-01-28T14:38:26.114Z,95481.63
2019-01-28T14:40:27.792Z,95482.84
2019-01-28T14:42:29.492Z,95482.38
2019-01-28T14:44:31.133Z,95474.69
2019-01-28T14:46:32.744Z,95473.78
2019-01-28T14:48:34.342Z,95474.95
2019-01-28T14:50:35.960Z,95477.88
2019-01-28T14:52:37.565Z,95479.56
2019-01-28T14:54:39.176Z,95476.91
2019-01-28T14:56:40.837Z,95472.66
2019-01-28T14:58:42.433Z,95471.80
2019-01-28T15:00:44.031Z,95474.31
2019-01-28T15:02:45.642Z,95479.94
2019-01-28T15:04:47.241Z,95474.42
2019-01-28T15:06:48.843Z,95478.97
2019-01-28T15:08:50.482Z,95481.52
2019-01-28T15:10:52.089Z,95477.12
2019-01-28T15:12:53.718Z,95481.66
2019-01-28T15:14:55.332Z,95472.57
2019-01-28T15:16:56.930Z,95472.45
2019-01-28T15:18:58.576Z,95466.20
2019-01-28T15:21:00.248Z,95471.59
2019-01-28T15:23:01.842Z,95464.95
2019-01-28T15:25:03.438Z,95474.28
2019-01-28T15:27:05.085Z,95469.81
2019-01-28T15:29:06.682Z,95467.23
2019-01-28T15:31:08.290Z,95469.88
2019-01-28T15:33:09.934Z,95472.44
2019-01-28T15:35:11.586Z,95467.84
2019-01-28T15:37:13.195Z,95456.71
2019-01-28T15:39:14.804Z,95466.86
2019-01-28T15:41:16.411Z,95465.08
2019-01-28T15:43:18.019Z,95462.52
2019-01-28T15:45:19.645Z,95471.02
2019-01-28T15:47:21.243Z,95463.78
2019-01-28T15:49:22.888Z,95470.36
2019-01-28T15:51:24.475Z,95471.63
2019-01-28T15:53:26.102Z,95474.73
2019-01-28T15:55:27.716Z,95479.23
2019-01-28T15:57:29.325Z,95473.12
2019-01-28T15:59:30.975Z,95473.89
2019-01-28T16:01:32.577Z,95472.34
2019-01-28T16:03:34.454Z,95471.25
2019-01-28T16:05:36.146Z,95470.47
2019-01-28T16:07:37.777Z,95468.53
2019-01-28T16:09:39.373Z,95471.47
2019-01-28T16:11:40.996Z,95469.50
2019-01-28T16:13:42.598Z,95466.00
2019-01-28T16:15:44.238Z,95468.99
2019-01-28T16:17:45.848Z,95470.30
2019-01-28T16:19:47.444Z,95476.59
2019-01-28T16:21:49.081Z,95473.77
2019-01-28T16:23:50.699Z,95469.62
2019-01-28T16:25:52.288Z,95476.00
2019-01-28T16:27:53.882Z,95475.97
2019-01-28T16:29:55.477Z,95470.00
2019-01-28T16:31:57.128Z,95470.34
2019-01-28T16:33:58.743Z,95470.94
2019-01-28T16:36:00.349Z,95471.23
2019-01-28T16:38:01.974Z,95469.55
2019-01-28T16:40:03.559Z,95469.50
2019-01-28T16:42:05.171Z,95457.87
2019-01-28T16:44:06.765Z,95469.38
2019-01-28T16:46:08.404Z,95467.62
2019-01-28T16:48:10.006Z,95466.25
2019-01-28T16:50:11.605Z,95467.83
2019-01-28T16:52:13.245Z,95466.84
2019-01-28T16:54:14.867Z,95465.50
2019-01-28T16:56:16.540Z,95463.67
2019-01-28T16:58:18.143Z,95462.82
2019-01-28T17:00:19.741Z,95463.28
2019-01-28T17:02:21.372Z,95470.36
2019-01-28T17:04:23.004Z,95462.76
2019-01-28T17:06:24.602Z,95463.06
2019-01-28T17:08:26.203Z,95467.13
2019-01-28T17:10:27.800Z,95465.58
2019-01-28T17:12:29.483Z,95460.56
2019-01-28T17:14:31.070Z,95469.04
2019-01-28T17:16:32.707Z,95462.92
2019-01-28T17:18:34.314Z,95457.99
2019-01-28T17:20:36.019Z,95461.77
2019-01-28T17:22:37.642Z,95462.02
2019-01-28T17:24:39.340Z,95455.86
2019-01-28T17:26:40.978Z,95458.16
2019-01-28T17:28:42.574Z,95454.23
2019-01-28T17:30:44.179Z,95458.59
2019-01-28T17:32:45.783Z,95448.79
2019-01-28T17:34:47.382Z,95454.20
2019-01-28T17:36:49.015Z,95457.00
2019-01-28T17:38:50.643Z,95459.98
2019-01-28T17:40:52.256Z,95457.86
2019-01-28T17:42:53.863Z,95459.65
2019-01-28T17:44:55.503Z,95459.56
2019-01-28T17:46:57.126Z,95457.72
2019-01-28T17:48:58.767Z,95461.31
2019-01-28T17:51:00.410Z,95457.77
2019-01-28T17:53:02.020Z,95461.91
2019-01-28T17:55:03.618Z,95455.42
2019-01-28T17:57:05.235Z,95454.19
2019-01-28T17:59:06.840Z,95455.92
2019-01-28T18:01:08.465Z,95461.52
2019-01-28T18:03:10.076Z,95454.47
2019-01-28T18:05:11.674Z,95460.48
2019-01-28T18:07:13.287Z,95462.33
2019-01-28T18:09:14.896Z,95463.20
2019-01-28T18:11:16.537Z,95465.05
2019-01-28T18:13:18.139Z,95466.98
2019-01-28T18:15:19.755Z,95470.72
2019-01-28T18:17:21.348Z,95470.29
2019-01-28T18:19:22.955Z,95433.84
2019-01-28T18:21:24.628Z,95471.42
2019-01-28T18:23:26.231Z,95475.68
2019-01-28T18:25:27.848Z,95471.56
2019-01-28T18:27:29.504Z,95477.12
2019-01-28T18:29:31.116Z,95479.52
2019-01-28T18:31:34.694Z,95480.09
2019-01-28T18:33:36.364Z,95480.06
2019-01-28T18:35:38.017Z,95482.56
2019-01-28T18:37:39.645Z,95480.20
2019-01-28T18:39:41.365Z,95486.37
2019-01-28T18:41:42.969Z,95482.25
2019-01-28T18:43:44.570Z,95486.30
2019-01-28T18:45:46.194Z,95479.84
2019-01-28T18:47:47.798Z,95482.45
2019-01-28T18:49:49.393Z,95465.64
2019-01-28T18:51:51.029Z,95481.89
2019-01-28T18:53:52.640Z,95480.92
2019-01-28T18:55:55.702Z,95485.55
2019-01-28T18:57:55.903Z,95489.39
2019-01-28T18:59:57.524Z,95490.81
2019-01-28T19:01:59.126Z,95484.84
2019-01-28T19:04:00.744Z,95481.67
2019-01-28T19:06:02.337Z,95492.77
2019-01-28T19:08:03.948Z,95489.65
2019-01-28T19:10:05.560Z,95493.94
2019-01-28T19:12:07.153Z,95492.66
2019-01-28T19:14:24.145Z,95496.62
2019-01-28T19:16:28.316Z,95506.69
2019-01-28T19:18:33.566Z,95506.40
2019-01-28T19:20:35.166Z,95506.64
2019-01-28T19:22:36.846Z,95505.91
2019-01-28T19:24:38.459Z,95507.30
2019-01-28T19:26:40.072Z,95511.80
2019-01-28T19:28:41.679Z,95513.98
2019-01-28T19:30:43.278Z,95513.61
2019-01-28T19:32:45.475Z,95515.19
2019-01-28T19:34:47.063Z,95515.39
2019-01-28T19:36:48.656Z,95506.81
2019-01-28T19:38:50.249Z,95516.72
2019-01-28T19:40:51.835Z,95516.47
2019-01-28T19:42:53.443Z,95519.92
2019-01-28T19:44:55.060Z,95520.76
2019-01-28T19:46:56.663Z,95524.42
2019-01-28T19:48:58.361Z,95531.40
2019-01-28T19:50:59.951Z,95528.36
2019-01-28T19:53:01.549Z,95533.34
2019-01-28T19:55:03.215Z,95535.41
2019-01-28T19:57:04.966Z,95538.76
2019-01-28T19:59:06.709Z,95531.39
2019-01-28T20:01:08.379Z,95540.95
2019-01-28T20:03:10.022Z,95565.09
2019-01-28T20:05:11.622Z,95542.50
2019-01-28T20:07:13.239Z,95541.57
2019-01-28T20:09:14.852Z,95518.34
2019-01-28T20:11:16.492Z,95540.69
2019-01-28T20:13:18.128Z,95539.89
2019-01-28T20:15:19.725Z,95550.22
2019-01-28T20:17:21.331Z,95544.69
2019-01-28T20:19:22.916Z,95549.72
2019-01-28T20:21:24.540Z,95548.21
2019-01-28T20:23:26.977Z,95547.69
2019-01-28T20:25:27.831Z,95547.20
2019-01-28T20:27:29.476Z,95552.06
2019-01-28T20:29:31.153Z,95554.14
2019-01-28T20:31:32.755Z,95557.77
2019-01-28T20:33:34.357Z,95564.46
2019-01-28T20:35:35.994Z,95568.80
2019-01-28T20:37:37.607Z,95563.39
2019-01-28T20:39:39.192Z,95569.41
2019-01-28T20:41:40.832Z,95566.69
2019-01-28T20:43:42.455Z,95574.33
2019-01-28T20:45:45.187Z,95576.31
2019-01-28T20:47:45.782Z,95579.70
2019-01-28T20:49:47.391Z,95577.51
2019-01-28T20:51:49.026Z,95576.48
2019-01-28T20:53:50.676Z,95582.67
2019-01-28T20:55:52.288Z,95577.83
2019-01-28T20:57:53.912Z,95579.80
2019-01-28T20:59:55.547Z,95577.48
2019-01-28T21:01:57.157Z,95580.33
2019-01-28T21:03:58.801Z,95576.61
2019-01-28T21:06:00.387Z,95575.05
2019-01-28T21:08:02.023Z,95582.09
2019-01-28T21:10:03.703Z,95585.55
2019-01-28T21:12:05.323Z,95588.02
2019-01-28T21:14:06.951Z,95586.20
2019-01-28T21:16:08.569Z,95581.50
2019-01-28T21:18:10.168Z,95585.59
2019-01-28T21:20:12.452Z,95586.97
2019-01-28T21:22:14.087Z,95593.95
2019-01-28T21:24:15.685Z,95593.93
2019-01-28T21:26:17.282Z,95602.78
2019-01-28T21:28:18.932Z,95611.77
2019-01-28T21:30:20.530Z,95613.27
2019-01-28T21:32:22.149Z,95617.92
2019-01-28T21:34:23.785Z,95616.53
2019-01-28T21:36:25.377Z,95627.53
2019-01-28T21:38:30.632Z,95634.02
2019-01-28T21:40:32.373Z,95632.67
2019-01-28T21:42:33.998Z,95626.81
2019-01-28T21:44:35.597Z,95636.05
2019-01-28T21:46:37.185Z,95638.61
2019-01-28T21:48:38.772Z,95626.22
2019-01-28T21:50:40.375Z,95639.21
2019-01-28T21:52:41.978Z,95637.11
2019-01-28T21:54:43.607Z,95610.06
2019-01-28T21:56:45.196Z,95642.85
2019-01-28T21:58:46.800Z,95641.77
2019-01-28T22:00:48.479Z,95650.29
2019-01-28T22:02:50.098Z,95640.59
2019-01-28T22:04:51.716Z,95642.05
2019-01-28T22:06:53.318Z,95642.46
2019-01-28T22:08:54.923Z,95650.13
2019-01-28T22:10:56.537Z,95650.16
2019-01-28T22:12:58.179Z,95653.83
2019-01-28T22:14:59.773Z,95650.80
2019-01-28T22:17:01.384Z,95660.70
2019-01-28T22:19:02.987Z,95653.98
2019-01-28T22:21:04.585Z,95656.80
2019-01-28T22:23:06.195Z,95663.18
2019-01-28T22:25:07.808Z,95664.58
2019-01-28T22:27:09.414Z,95670.59
2019-01-28T22:29:11.037Z,95669.69
2019-01-28T22:31:12.648Z,95675.80
2019-01-28T22:33:14.236Z,95665.75
2019-01-28T22:35:15.839Z,95666.95
2019-01-28T22:37:17.487Z,95676.45
2019-01-28T22:39:19.095Z,95675.17
2019-01-28T22:41:20.698Z,95681.56
2019-01-28T22:43:22.321Z,95681.33
2019-01-28T22:45:23.958Z,95689.22
2019-01-28T22:47:25.562Z,95694.45
2019-01-28T22:49:27.167Z,95694.86
2019-01-28T22:51:28.769Z,95695.49
2019-01-28T22:53:30.366Z,95694.48
2019-01-28T22:55:31.971Z,95697.63
2019-01-28T22:57:33.615Z,95699.05
2019-01-28T22:59:35.210Z,95703.33
2019-01-28T23:01:36.810Z,95703.19
2019-01-28T23:03:38.465Z,95710.81
2019-01-28T23:05:40.075Z,95712.95
2019-01-28T23:07:41.731Z,95712.54
2019-01-28T23:09:43.375Z,95707.88
2019-01-28T23:11:44.984Z,95708.78
2019-01-28T23:13:46.596Z,95713.37
2019-01-28T23:15:48.249Z,95720.58
2019-01-28T23:17:49.848Z,95724.23
2019-01-28T23:19:51.460Z,95724.03
2019-01-28T23:21:53.057Z,95688.29
2019-01-28T23:23:54.640Z,95725.50
2019-01-28T23:25:56.238Z,95724.54
2019-01-28T23:27:57.877Z,95741.55
2019-01-28T23:29:59.473Z,95731.92
2019-01-28T23:32:01.070Z,95732.45
2019-01-28T23:34:02.666Z,95731.66
2019-01-28T23:36:04.249Z,95738.14
2019-01-28T23:38:05.851Z,95741.42
2019-01-28T23:40:07.477Z,95743.11
2019-01-28T23:42:09.081Z,95738.48
2019-01-28T23:44:10.664Z,95745.02
2019-01-28T23:46:12.305Z,95748.53
2019-01-28T23:48:13.892Z,95746.60